»·PEaware :: AAL1345 KLAX-KEGE

AAL1345 :: KLAX-KEGE

FLIGHT INFORMATION

Flight Status: Arrived
Operator:
American Airlines
More flights by this operator :: More flights under this callsign
Pilot: Charles B. (28700)
Aircraft: BOEING 757-200
(B752)
More flights by this aircraft type
Origin: KLAX Los Angeles Intl
United States
Destination: KEGE Eagle Co Regl
United States
More flights between these airports :: More routes between these airports
Route: ORCKA5 LAS BAWER JNC JESIE RLG
File this flight plan on PilotEdge
Remarks:
Altitude:
(Current/Filed)
35,000ft
Speed:
(Current/Filed)
460kts
Departed: 23-Feb-21 09:11 AM
Arrived: 23-Feb-21 10:57 AM
Distance/Time
Traveled:
649nm/1:45
Distance/Time
To Go:
Arrived

Flight Plot

Page will automatically refresh every two minutes.

Flight plan parsing failed; only flown route is shown


Map Options




Map Legend


Flown Route
Filed Route
Departure Airport
Arrival Airport
Navaid (VOR, NDB)
Fix

Horizontal Profiles

Position Reports

Time Latitude Longitude Heading Altitude Ground
Speed
23-Feb-21 08:02 33.941055 -118.407354 69 126ft 0kts
23-Feb-21 08:03 33.941055 -118.407354 69 126ft 0kts
23-Feb-21 08:04 33.941055 -118.407354 69 126ft 0kts
23-Feb-21 08:05 33.941055 -118.407354 69 126ft 0kts
23-Feb-21 08:06 33.941055 -118.407354 69 126ft 0kts
23-Feb-21 08:07 33.941055 -118.407354 69 126ft 0kts
23-Feb-21 08:08 33.941055 -118.407354 69 126ft 0kts
23-Feb-21 08:09 33.941055 -118.407354 69 126ft 0kts
23-Feb-21 08:10 33.941055 -118.407354 69 126ft 0kts
23-Feb-21 08:11 33.941055 -118.407354 69 126ft 0kts
23-Feb-21 08:12 33.941055 -118.407354 69 126ft 0kts
23-Feb-21 08:13 33.941055 -118.407354 69 126ft 0kts
23-Feb-21 08:14 33.941055 -118.407354 69 126ft 0kts
23-Feb-21 08:15 33.941055 -118.407354 69 126ft 0kts
23-Feb-21 08:16 33.941055 -118.407354 69 126ft 0kts
23-Feb-21 08:17 33.941055 -118.407354 69 126ft 0kts
23-Feb-21 08:18 33.941055 -118.407354 69 126ft 0kts
23-Feb-21 08:19 33.941055 -118.407354 69 126ft 0kts
23-Feb-21 08:20 33.941055 -118.407354 69 126ft 0kts
23-Feb-21 08:21 33.941055 -118.407354 69 126ft 0kts
23-Feb-21 08:22 33.941055 -118.407354 69 126ft 0kts
23-Feb-21 08:23 33.941055 -118.407354 69 126ft 0kts
23-Feb-21 08:24 33.941055 -118.407354 69 126ft 0kts
23-Feb-21 08:25 33.941055 -118.407354 69 126ft 0kts
23-Feb-21 08:26 33.941055 -118.407354 69 126ft 0kts
23-Feb-21 08:27 33.941055 -118.407354 69 126ft 0kts
23-Feb-21 08:28 33.941055 -118.407354 69 126ft 0kts
23-Feb-21 08:29 33.941055 -118.407354 69 126ft 0kts
23-Feb-21 08:30 33.941055 -118.407354 69 126ft 0kts
23-Feb-21 08:31 33.941055 -118.407354 69 126ft 0kts
23-Feb-21 08:32 33.941055 -118.407354 69 126ft 0kts
23-Feb-21 08:33 33.941055 -118.407354 69 126ft 0kts
23-Feb-21 08:34 33.941055 -118.407354 69 126ft 0kts
23-Feb-21 08:35 33.941055 -118.407354 69 126ft 0kts
23-Feb-21 08:36 33.941055 -118.407354 69 126ft 0kts
23-Feb-21 08:37 33.941055 -118.407354 69 126ft 0kts
23-Feb-21 08:38 33.941055 -118.407354 69 126ft 0kts
23-Feb-21 08:39 33.941055 -118.407354 69 126ft 0kts
23-Feb-21 08:40 33.941055 -118.407354 69 126ft 0kts
23-Feb-21 08:41 33.941055 -118.407354 69 126ft 0kts
23-Feb-21 08:42 33.941055 -118.407354 69 126ft 0kts
23-Feb-21 08:43 33.941055 -118.407354 69 126ft 0kts
23-Feb-21 08:44 33.941055 -118.407354 69 126ft 0kts
23-Feb-21 08:45 33.941055 -118.407354 69 126ft 0kts
23-Feb-21 08:46 33.941055 -118.407354 69 126ft 0kts
23-Feb-21 08:47 33.941055 -118.407354 69 126ft 0kts
23-Feb-21 08:48 33.941055 -118.407354 69 126ft 0kts
23-Feb-21 08:50 33.941055 -118.407354 69 126ft 0kts
23-Feb-21 08:51 33.941055 -118.407354 69 126ft 0kts
23-Feb-21 08:52 33.940887 -118.407886 69 127ft 0kts
23-Feb-21 08:53 33.940887 -118.407886 69 127ft 0kts
23-Feb-21 08:54 33.940887 -118.407886 69 127ft 0kts
23-Feb-21 08:55 33.940887 -118.407886 69 127ft 0kts
23-Feb-21 08:56 33.940887 -118.407886 69 127ft 0kts
23-Feb-21 08:57 33.940332 -118.408080 196 128ft 1kts
23-Feb-21 08:58 33.940160 -118.408117 183 129ft 0kts
23-Feb-21 08:59 33.938900 -118.407244 84 130ft 7kts
23-Feb-21 09:00 33.939380 -118.402369 82 123ft 23kts
23-Feb-21 09:01 33.940010 -118.395994 84 113ft 19kts
23-Feb-21 09:02 33.939898 -118.392293 151 110ft 17kts
23-Feb-21 09:03 33.940026 -118.387914 82 107ft 12kts
23-Feb-21 09:04 33.940357 -118.384565 80 106ft 9kts
23-Feb-21 09:05 33.940654 -118.381777 86 103ft 7kts
23-Feb-21 09:06 33.940755 -118.380847 81 103ft 0kts
23-Feb-21 09:07 33.940755 -118.380847 81 103ft 0kts
23-Feb-21 09:08 33.940755 -118.380847 81 103ft 0kts
23-Feb-21 09:09 33.940755 -118.380847 81 103ft 0kts
23-Feb-21 09:10 33.939674 -118.381388 264 103ft 29kts
23-Feb-21 09:11 33.936711 -118.417798 277 572ft 134kts
23-Feb-21 09:11 33.926534 -118.452953 230 1421ft 146kts
23-Feb-21 09:13 33.919430 -118.506490 274 2872ft 148kts
23-Feb-21 09:14 33.923142 -118.556967 241 3848ft 189kts
23-Feb-21 09:15 33.888511 -118.614862 199 5364ft 248kts
23-Feb-21 09:16 33.828006 -118.579245 132 7846ft 275kts
23-Feb-21 09:16 33.791180 -118.514720 92 9885ft 291kts
23-Feb-21 09:17 33.839807 -118.458739 351 12421ft 277kts
23-Feb-21 09:18 33.910860 -118.425194 5 14863ft 288kts
23-Feb-21 09:20 33.982291 -118.364596 55 17714ft 297kts
23-Feb-21 09:20 34.019283 -118.287770 61 18179ft 359kts
23-Feb-21 09:21 34.077299 -118.176757 54 19394ft 411kts
23-Feb-21 09:22 34.142619 -118.060545 53 21578ft 430kts
23-Feb-21 09:23 34.211173 -117.938696 53 23587ft 447kts
23-Feb-21 09:24 34.281876 -117.812628 53 25485ft 463kts
23-Feb-21 09:25 34.355371 -117.681688 51 27240ft 478kts
23-Feb-21 09:26 34.434558 -117.549320 51 28826ft 493kts
23-Feb-21 09:27 34.515944 -117.412550 50 30292ft 506kts
23-Feb-21 09:28 34.598654 -117.272782 51 31845ft 512kts
23-Feb-21 09:29 34.680600 -117.132277 50 33558ft 509kts
23-Feb-21 09:30 34.762624 -116.992619 50 35123ft 505kts
23-Feb-21 09:31 34.843996 -116.853656 50 35212ft 503kts
23-Feb-21 09:32 34.926868 -116.715786 43 35221ft 500kts
23-Feb-21 09:33 35.020962 -116.592188 42 35208ft 499kts
23-Feb-21 09:34 35.114823 -116.467016 43 35189ft 500kts
23-Feb-21 09:35 35.208480 -116.341973 43 35186ft 500kts
23-Feb-21 09:36 35.302508 -116.216770 42 35180ft 499kts
23-Feb-21 09:37 35.396123 -116.091745 42 35182ft 500kts
23-Feb-21 09:38 35.489903 -115.966036 42 35183ft 500kts
23-Feb-21 09:39 35.583858 -115.841440 42 35185ft 499kts
23-Feb-21 09:40 35.677340 -115.715581 43 35186ft 500kts
23-Feb-21 09:41 35.770067 -115.588047 43 35188ft 500kts
23-Feb-21 09:42 35.862344 -115.460533 43 35189ft 499kts
23-Feb-21 09:43 35.954312 -115.331743 43 35181ft 501kts
23-Feb-21 09:44 36.046473 -115.204035 43 35146ft 501kts
23-Feb-21 09:45 36.130410 -115.067237 50 35180ft 505kts
23-Feb-21 09:46 36.211043 -114.923806 50 35161ft 505kts
23-Feb-21 09:47 36.290934 -114.780488 51 35159ft 505kts
23-Feb-21 09:48 36.369975 -114.636549 50 35161ft 505kts
23-Feb-21 09:49 36.448815 -114.492019 50 35162ft 505kts
23-Feb-21 09:50 36.528481 -114.348606 50 35178ft 505kts
23-Feb-21 09:51 36.608175 -114.204871 50 35206ft 505kts
23-Feb-21 09:52 36.687909 -114.060429 50 35209ft 505kts
23-Feb-21 09:53 36.766452 -113.914338 51 35211ft 505kts
23-Feb-21 09:54 36.844475 -113.768693 51 35213ft 506kts
23-Feb-21 09:55 36.922816 -113.622661 50 35214ft 505kts
23-Feb-21 09:56 37.001474 -113.477375 49 35216ft 504kts
23-Feb-21 09:57 37.080018 -113.332327 51 35208ft 506kts
23-Feb-21 09:58 37.157934 -113.185377 51 35208ft 507kts
23-Feb-21 09:59 37.236443 -113.038754 50 35187ft 506kts
23-Feb-21 10:00 37.314631 -112.891386 51 35211ft 506kts
23-Feb-21 10:01 37.392115 -112.744021 51 35213ft 506kts
23-Feb-21 10:02 37.469625 -112.595894 51 35215ft 506kts
23-Feb-21 10:03 37.546991 -112.447391 51 35217ft 506kts
23-Feb-21 10:04 37.624005 -112.298869 52 35205ft 507kts
23-Feb-21 10:05 37.689790 -112.145958 57 35208ft 510kts
23-Feb-21 10:06 37.758592 -111.984035 56 35210ft 509kts
23-Feb-21 10:07 37.825792 -111.826371 56 35212ft 509kts
23-Feb-21 10:08 37.892802 -111.668477 56 35213ft 509kts
23-Feb-21 10:09 37.959730 -111.509994 56 35215ft 509kts
23-Feb-21 10:10 38.026338 -111.351476 56 35217ft 509kts
23-Feb-21 10:11 38.092830 -111.192444 57 35205ft 509kts
23-Feb-21 10:12 38.159121 -111.033096 57 35210ft 509kts
23-Feb-21 10:13 38.225094 -110.873695 57 35160ft 509kts
23-Feb-21 10:14 38.290902 -110.713893 56 35160ft 510kts
23-Feb-21 10:15 38.357308 -110.555035 55 35162ft 509kts
23-Feb-21 10:16 38.422565 -110.394432 57 35164ft 510kts
23-Feb-21 10:17 38.486706 -110.233761 57 35153ft 510kts
23-Feb-21 10:18 38.551279 -110.073445 57 35155ft 510kts
23-Feb-21 10:19 38.616315 -109.911365 57 35157ft 510kts
23-Feb-21 10:20 38.678923 -109.755383 58 35155ft 463kts
23-Feb-21 10:21 38.738688 -109.608877 60 35157ft 463kts
23-Feb-21 10:22 38.793976 -109.465902 60 35159ft 450kts
23-Feb-21 10:23 38.850470 -109.320884 61 35154ft 455kts
23-Feb-21 10:24 38.907197 -109.175912 60 35154ft 455kts
23-Feb-21 10:25 38.964679 -109.028434 60 35154ft 455kts
23-Feb-21 10:26 39.021816 -108.881104 60 35154ft 455kts
23-Feb-21 10:27 39.082814 -108.740648 50 35154ft 446kts
23-Feb-21 10:28 39.151190 -108.608424 52 35148ft 445kts
23-Feb-21 10:29 39.219340 -108.475776 51 34174ft 445kts
23-Feb-21 10:30 39.287593 -108.342508 52 33210ft 448kts
23-Feb-21 10:31 39.350092 -108.221539 51 32316ft 451kts
23-Feb-21 10:32 39.419165 -108.086273 52 31324ft 454kts
23-Feb-21 10:33 39.488544 -107.949739 51 30330ft 456kts
23-Feb-21 10:34 39.557712 -107.813910 52 29317ft 436kts
23-Feb-21 10:35 39.623823 -107.682294 52 28317ft 434kts
23-Feb-21 10:36 39.689425 -107.550954 52 27320ft 435kts
23-Feb-21 10:37 39.754548 -107.420101 55 25901ft 423kts
23-Feb-21 10:38 39.818066 -107.291658 53 24735ft 421kts
23-Feb-21 10:39 39.881026 -107.163939 51 23313ft 422kts
23-Feb-21 10:40 39.944664 -107.034503 50 20990ft 429kts
23-Feb-21 10:41 40.005440 -106.909280 55 18620ft 397kts
23-Feb-21 10:42 40.017089 -106.760092 93 17008ft 427kts
23-Feb-21 10:43 40.010428 -106.621602 94 15594ft 314kts
23-Feb-21 10:44 40.005294 -106.517608 95 15438ft 278kts
23-Feb-21 10:45 39.965046 -106.451234 188 15026ft 251kts
23-Feb-21 10:46 39.902474 -106.482936 201 14868ft 221kts
23-Feb-21 10:47 39.846591 -106.507464 199 14654ft 212kts
23-Feb-21 10:48 39.791243 -106.530824 199 14268ft 209kts
23-Feb-21 10:49 39.733011 -106.555282 197 13485ft 219kts
23-Feb-21 10:50 39.683483 -106.592538 259 12533ft 209kts
23-Feb-21 10:51 39.676882 -106.668025 260 11145ft 216kts
23-Feb-21 10:52 39.666642 -106.741678 259 9730ft 197kts
23-Feb-21 10:53 39.657739 -106.807423 259 8462ft 160kts
23-Feb-21 10:54 39.649577 -106.861096 257 7409ft 150kts
23-Feb-21 10:55 39.642694 -106.913813 277 6557ft 131kts
23-Feb-21 10:56 39.640116 -106.931120 111 6555ft 4kts
23-Feb-21 10:57 39.640173 -106.929477 82 6555ft 8kts
23-Feb-21 10:58 39.640765 -106.924230 81 6556ft 26kts
23-Feb-21 10:59 39.641590 -106.916037 110 6555ft 7kts
23-Feb-21 11:00 39.641324 -106.913635 91 6555ft 5kts
23-Feb-21 11:01 39.640884 -106.913302 168 6555ft 0kts

Navigation Log

Ident Type
Flight plan parsing failed, navigation log unavailable